createdAt,value
2023-04-02T00:01:01.511Z,100168.03
2023-04-02T00:03:45.841Z,100148.34
2023-04-02T00:06:44.473Z,100176.22
2023-04-02T00:09:31.231Z,100157.81
2023-04-02T00:12:00.415Z,100075.31
2023-04-02T00:14:33.352Z,100101.13
2023-04-02T00:17:02.573Z,100173.72
2023-04-02T00:19:38.196Z,100194.13
2023-04-02T00:22:08.772Z,100102.75
2023-04-02T00:24:35.554Z,100145.47
2023-04-02T00:27:01.922Z,100194.19
2023-04-02T00:29:28.387Z,100183.63
2023-04-02T00:31:58.837Z,100195.63
2023-04-02T00:34:42.939Z,100186.78
2023-04-02T00:37:23.561Z,100182.75
2023-04-02T00:39:53.087Z,100223.25
2023-04-02T00:42:21.124Z,100091.81
2023-04-02T00:44:49.384Z,100233.94
2023-04-02T00:47:21.384Z,100196.41
2023-04-02T00:49:51.719Z,100240.44
2023-04-02T00:52:22.592Z,100167.59
2023-04-02T00:54:52.859Z,100256.13
2023-04-02T00:57:26.559Z,100249.19
2023-04-02T01:00:10.888Z,100256.19
2023-04-02T01:02:40.629Z,100249.84
2023-04-02T01:05:23.280Z,100254.97
2023-04-02T01:08:12.892Z,100227.63
2023-04-02T01:10:55.679Z,100262.47
2023-04-02T01:13:40.617Z,100285.09
2023-04-02T01:16:37.495Z,100279.56
2023-04-02T01:19:18.237Z,100253.75
2023-04-02T01:21:57.453Z,100291.88
2023-04-02T01:24:29.749Z,100285.41
2023-04-02T01:27:10.375Z,100293.06
2023-04-02T01:29:46.110Z,100209.56
2023-04-02T01:32:15.535Z,100304.25
2023-04-02T01:34:45.204Z,100301.00
2023-04-02T01:37:17.989Z,100322.31
2023-04-02T01:40:18.326Z,100324.09
2023-04-02T01:43:35.868Z,100325.75
2023-04-02T01:46:24.588Z,100316.47
2023-04-02T01:48:52.938Z,100325.69
2023-04-02T01:51:32.212Z,100348.06
2023-04-02T01:54:02.036Z,100318.59
2023-04-02T01:56:30.451Z,100331.13
2023-04-02T01:58:58.770Z,100275.47
2023-04-02T02:01:31.986Z,100291.28
2023-04-02T02:03:59.853Z,100241.13
2023-04-02T02:06:26.352Z,100262.84
2023-04-02T02:08:56.495Z,100339.38
2023-04-02T02:11:26.922Z,100253.94
2023-04-02T02:13:57.511Z,100197.13
2023-04-02T02:16:27.078Z,100274.38
2023-04-02T02:18:59.104Z,100374.47
2023-04-02T02:21:47.204Z,100296.34
2023-04-02T02:24:33.576Z,100392.31
2023-04-02T02:27:14.918Z,100393.94
2023-04-02T02:29:43.846Z,100302.25
2023-04-02T02:32:12.019Z,100312.78
2023-04-02T02:34:42.945Z,100410.81
2023-04-02T02:37:28.224Z,100408.25
2023-04-02T02:39:58.385Z,100424.53
2023-04-02T02:42:40.698Z,100433.94
2023-04-02T02:45:14.857Z,100447.09
2023-04-02T02:47:42.531Z,100449.25
2023-04-02T02:50:18.141Z,100293.34
2023-04-02T02:52:50.769Z,100388.97
2023-04-02T02:55:24.043Z,100454.22
2023-04-02T02:57:56.143Z,100416.56
2023-04-02T03:00:24.586Z,100386.59
2023-04-02T03:02:54.624Z,100363.34
2023-04-02T03:05:24.040Z,100469.13
2023-04-02T03:07:53.279Z,100286.81
2023-04-02T03:10:29.873Z,100474.22
2023-04-02T03:13:19.718Z,100390.03
2023-04-02T03:16:02.671Z,100499.41
2023-04-02T03:18:42.453Z,100494.19
2023-04-02T03:21:26.735Z,100510.41
2023-04-02T03:23:57.577Z,100521.88
2023-04-02T03:26:37.799Z,100411.81
2023-04-02T03:29:28.487Z,100510.13
2023-04-02T03:32:07.800Z,100525.75
2023-04-02T03:34:44.494Z,100531.44
2023-04-02T03:37:29.375Z,100535.81
2023-04-02T03:40:04.514Z,100551.22
2023-04-02T03:42:44.300Z,100560.97
2023-04-02T03:45:16.278Z,100551.09
2023-04-02T03:48:05.489Z,100560.81
2023-04-02T03:50:36.961Z,100573.88
2023-04-02T03:53:04.633Z,100456.84
2023-04-02T03:55:36.980Z,100460.16
2023-04-02T03:58:25.547Z,100594.50
2023-04-02T04:01:10.201Z,100579.25
2023-04-02T04:03:36.597Z,100609.25
2023-04-02T04:06:19.662Z,100586.22
2023-04-02T04:08:50.262Z,100521.97
2023-04-02T04:11:22.616Z,100599.16
2023-04-02T04:13:57.731Z,100623.38
2023-04-02T04:16:32.279Z,100549.13
2023-04-02T04:19:10.792Z,100645.72
2023-04-02T04:21:37.481Z,100540.66
2023-04-02T04:24:27.558Z,100650.94
2023-04-02T04:27:09.451Z,100632.13
2023-04-02T04:29:51.426Z,100659.91
2023-04-02T04:32:27.528Z,100648.63
2023-04-02T04:35:08.404Z,100536.84
2023-04-02T04:37:39.332Z,100660.84
2023-04-02T04:40:18.922Z,100645.09
2023-04-02T04:42:47.411Z,100659.84
2023-04-02T04:45:36.377Z,100646.59
2023-04-02T04:48:16.643Z,100691.66
2023-04-02T04:50:54.570Z,100693.31
2023-04-02T04:53:23.991Z,100703.78
2023-04-02T04:55:56.077Z,100707.50
2023-04-02T04:58:33.590Z,100692.84
2023-04-02T05:01:07.209Z,100704.03
2023-04-02T05:03:44.940Z,100731.69
2023-04-02T05:06:25.822Z,100733.53
2023-04-02T05:08:59.119Z,100656.63
2023-04-02T05:11:34.732Z,100732.50
2023-04-02T05:14:06.778Z,100693.88
2023-04-02T05:16:45.993Z,100693.44
2023-04-02T05:19:30.901Z,100671.00
2023-04-02T05:22:20.869Z,100785.69
2023-04-02T05:24:56.879Z,100793.53
2023-04-02T05:27:27.145Z,100788.44
2023-04-02T05:30:23.591Z,100686.50
2023-04-02T05:32:57.309Z,100709.91
2023-04-02T05:35:32.640Z,100709.97
2023-04-02T05:38:01.721Z,100720.28
2023-04-02T05:40:36.281Z,100826.66
2023-04-02T05:43:07.784Z,100748.84
2023-04-02T05:45:38.862Z,100824.03
2023-04-02T05:48:19.986Z,100826.53
2023-04-02T05:50:53.140Z,100816.25
2023-04-02T05:53:33.444Z,100797.09
2023-04-02T05:56:21.695Z,100850.72
2023-04-02T05:58:51.748Z,100828.28
2023-04-02T06:01:45.320Z,100809.09
2023-04-02T06:04:16.876Z,100818.03
2023-04-02T06:06:49.634Z,100862.97
2023-04-02T06:09:39.385Z,100884.78
2023-04-02T06:12:24.295Z,100877.91
2023-04-02T06:14:50.925Z,100860.69
2023-04-02T06:17:19.249Z,100897.03
2023-04-02T06:19:47.684Z,100876.31
2023-04-02T06:22:36.829Z,100906.56
2023-04-02T06:25:19.121Z,100915.94
2023-04-02T06:27:47.409Z,100873.66
2023-04-02T06:30:26.153Z,100910.69
2023-04-02T06:32:52.528Z,100861.47
2023-04-02T06:35:18.968Z,100896.00
2023-04-02T06:37:51.915Z,100934.19
2023-04-02T06:40:39.630Z,100942.03
2023-04-02T06:43:16.280Z,100936.09
2023-04-02T06:45:46.303Z,100956.00
2023-04-02T06:48:21.344Z,100945.63
2023-04-02T06:50:51.207Z,100970.72
2023-04-02T06:53:24.301Z,100975.94
2023-04-02T06:55:55.090Z,100942.16
2023-04-02T06:58:21.654Z,100981.13
2023-04-02T07:00:50.072Z,100991.53
2023-04-02T07:03:24.086Z,101001.91
2023-04-02T07:05:51.275Z,101000.16
2023-04-02T07:08:21.272Z,101010.50
2023-04-02T07:10:48.066Z,101017.47
2023-04-02T07:13:23.006Z,100991.47
2023-04-02T07:15:52.377Z,101034.84
2023-04-02T07:18:26.875Z,100970.75
2023-04-02T07:20:53.660Z,101054.78
2023-04-02T07:23:21.116Z,100898.81
2023-04-02T07:25:54.701Z,101059.09
2023-04-02T07:28:22.924Z,101026.19
2023-04-02T07:30:55.986Z,100969.88
2023-04-02T07:33:25.852Z,100944.75
2023-04-02T07:35:57.661Z,100978.53
2023-04-02T07:38:24.454Z,101074.66
2023-04-02T07:40:50.900Z,100954.28
2023-04-02T07:43:17.454Z,101001.94
2023-04-02T07:45:43.808Z,101001.88
2023-04-02T07:48:14.564Z,101038.31
2023-04-02T07:50:41.819Z,100984.53
2023-04-02T07:53:17.038Z,101029.66
2023-04-02T07:55:45.693Z,100946.44
2023-04-02T07:58:12.162Z,100986.22
2023-04-02T08:00:41.193Z,100902.22
2023-04-02T08:03:07.857Z,100999.28
2023-04-02T08:05:34.582Z,101074.72
2023-04-02T08:08:01.505Z,101109.41
2023-04-02T08:10:27.916Z,101073.00
2023-04-02T08:12:55.042Z,101109.41
2023-04-02T08:15:21.614Z,101147.56
2023-04-02T08:17:48.293Z,101085.13
2023-04-02T08:20:20.815Z,101153.66
2023-04-02T08:23:10.950Z,101048.72
2023-04-02T08:25:37.445Z,101107.69
2023-04-02T08:28:03.992Z,100993.22
2023-04-02T08:30:30.534Z,101125.00
2023-04-02T08:32:58.182Z,101147.50
2023-04-02T08:35:24.720Z,101102.41
2023-04-02T08:37:52.406Z,101100.72
2023-04-02T08:40:36.250Z,101164.91
2023-04-02T08:43:38.883Z,101073.00
2023-04-02T08:46:27.444Z,101039.19
2023-04-02T08:48:58.306Z,101111.97
2023-04-02T08:51:35.680Z,101153.63
2023-04-02T08:54:21.090Z,101228.25
2023-04-02T08:57:19.684Z,101230.88
2023-04-02T08:59:47.156Z,101218.72
2023-04-02T09:02:48.179Z,101243.00
2023-04-02T09:05:31.413Z,101140.63
2023-04-02T09:08:01.806Z,101126.78
2023-04-02T09:10:42.473Z,101263.84
2023-04-02T09:13:17.949Z,101133.72
2023-04-02T09:15:44.789Z,101265.56
2023-04-02T09:18:19.122Z,101256.88
2023-04-02T09:20:48.102Z,101206.53
2023-04-02T09:23:19.721Z,101223.91
2023-04-02T09:26:03.546Z,101295.06
2023-04-02T09:28:33.764Z,101208.25
2023-04-02T09:31:21.638Z,101297.69
2023-04-02T09:33:50.727Z,101157.94
2023-04-02T09:36:33.537Z,101310.72
2023-04-02T09:39:07.001Z,101218.72
2023-04-02T09:41:50.177Z,101119.81
2023-04-02T09:44:28.319Z,101241.28
2023-04-02T09:47:03.392Z,101246.50
2023-04-02T09:49:36.114Z,101223.06
2023-04-02T09:52:25.855Z,101322.88
2023-04-02T09:55:31.164Z,101329.84
2023-04-02T09:58:14.124Z,101253.44
2023-04-02T10:00:50.812Z,101317.66
2023-04-02T10:03:35.330Z,101343.75
2023-04-02T10:06:07.923Z,101356.75
2023-04-02T10:08:39.134Z,101293.38
2023-04-02T10:11:36.356Z,101288.97
2023-04-02T10:14:20.814Z,101366.28
2023-04-02T10:16:58.266Z,101340.22
2023-04-02T10:19:36.041Z,101322.88
2023-04-02T10:22:14.293Z,101341.97
2023-04-02T10:24:42.831Z,101233.47
2023-04-02T10:27:44.673Z,101293.31
2023-04-02T10:30:36.422Z,101407.97
2023-04-02T10:33:17.855Z,101398.44
2023-04-02T10:35:56.224Z,101414.97
2023-04-02T10:39:04.852Z,101428.88
2023-04-02T10:41:40.201Z,101412.34
2023-04-02T10:44:21.918Z,101381.91
2023-04-02T10:47:05.024Z,101258.66
2023-04-02T10:50:03.311Z,101321.16
2023-04-02T10:52:39.277Z,101421.94
2023-04-02T10:55:28.105Z,101408.00
2023-04-02T11:02:36.213Z,101257.72
2023-04-02T11:09:02.637Z,101387.84
2023-04-02T11:11:44.382Z,101286.41
2023-04-02T11:32:34.157Z,101404.50
2023-04-02T11:35:07.113Z,101448.88
2023-04-02T11:37:39.846Z,101481.06
2023-04-02T11:40:16.342Z,101494.94
2023-04-02T11:42:47.553Z,101429.78
2023-04-02T11:45:20.932Z,101512.38
2023-04-02T11:48:02.347Z,101507.16
2023-04-02T11:50:37.558Z,101519.28
2023-04-02T11:53:13.168Z,101519.28
2023-04-02T11:56:07.461Z,101437.56
2023-04-02T11:58:46.241Z,101399.38
2023-04-02T12:01:47.511Z,101481.88
2023-04-02T12:04:27.710Z,101440.16
2023-04-02T12:07:01.208Z,101539.28
2023-04-02T12:12:24.622Z,101546.25
2023-04-02T12:14:54.566Z,101561.06
2023-04-02T12:17:29.390Z,101482.81
2023-04-02T12:20:03.588Z,101448.84
2023-04-02T12:22:33.359Z,101488.00
2023-04-02T12:25:18.582Z,101551.38
2023-04-02T12:27:46.649Z,101520.97
2023-04-02T12:30:16.670Z,101468.81
2023-04-02T12:32:43.685Z,101498.41
2023-04-02T12:35:32.391Z,101574.97
2023-04-02T12:37:59.417Z,101505.38
2023-04-02T12:40:28.708Z,101421.94
2023-04-02T12:42:55.451Z,101484.50
2023-04-02T12:45:26.159Z,101421.94
2023-04-02T12:48:00.040Z,101554.03
2023-04-02T12:50:26.719Z,101574.09
2023-04-02T12:52:55.605Z,101584.50
2023-04-02T12:55:24.540Z,101510.59
2023-04-02T12:57:58.975Z,101593.19
2023-04-02T13:04:08.562Z,101559.31
2023-04-02T13:06:36.378Z,101414.13
2023-04-02T13:09:06.042Z,101491.50
2023-04-02T13:11:51.506Z,101496.72
2023-04-02T13:14:22.681Z,101528.84
2023-04-02T13:16:49.187Z,101534.09
2023-04-02T13:22:31.924Z,101414.97
2023-04-02T13:24:58.521Z,101520.19
2023-04-02T13:27:25.004Z,101544.53
2023-04-02T13:29:52.787Z,101566.28
2023-04-02T13:32:22.234Z,101534.97
2023-04-02T13:34:51.315Z,101492.31
2023-04-02T13:37:17.711Z,101532.34
2023-04-02T13:39:44.345Z,101581.94
2023-04-02T13:42:12.878Z,101563.66
2023-04-02T13:44:39.609Z,101529.72
2023-04-02T13:47:06.329Z,101522.78
2023-04-02T13:49:32.822Z,101583.63
2023-04-02T13:52:46.837Z,101510.56
2023-04-02T13:55:26.108Z,101576.59
2023-04-02T13:57:52.531Z,101613.09
2023-04-02T14:00:19.834Z,101574.84
2023-04-02T14:03:15.061Z,101564.47
2023-04-02T14:05:55.651Z,101525.31
2023-04-02T14:08:59.081Z,101664.53
2023-04-02T14:11:57.832Z,101672.38
2023-04-02T14:14:57.446Z,101665.44
2023-04-02T14:17:48.949Z,101670.69
2023-04-02T14:20:44.353Z,101635.00
2023-04-02T14:23:37.585Z,101639.31
2023-04-02T14:26:39.402Z,101689.84
2023-04-02T14:29:25.189Z,101648.06
2023-04-02T14:32:14.840Z,101701.97
2023-04-02T14:34:44.211Z,101713.34
2023-04-02T14:37:30.751Z,101715.94
2023-04-02T14:40:03.957Z,101715.97
2023-04-02T14:42:48.753Z,101716.84
2023-04-02T14:45:51.669Z,101662.00
2023-04-02T14:48:52.090Z,101720.34
2023-04-02T14:51:40.769Z,101713.38
2023-04-02T14:54:28.074Z,101705.53
2023-04-02T14:56:59.201Z,101700.28
2023-04-02T14:59:50.669Z,101721.19
2023-04-02T15:02:27.679Z,101727.28
2023-04-02T15:05:03.381Z,101724.59
2023-04-02T15:07:48.786Z,101705.53
2023-04-02T15:10:29.485Z,101690.75
2023-04-02T15:12:57.290Z,101738.63
2023-04-02T15:15:52.520Z,101649.81
2023-04-02T15:18:19.097Z,101631.53
2023-04-02T15:21:09.385Z,101691.50
2023-04-02T15:23:51.283Z,101734.75
2023-04-02T15:26:36.236Z,101727.06
2023-04-02T15:29:28.850Z,101739.31
2023-04-02T15:32:03.283Z,101746.47
2023-04-02T15:34:43.972Z,101717.13
2023-04-02T15:37:35.841Z,101746.97
2023-04-02T15:40:38.262Z,101702.75
2023-04-02T15:43:29.604Z,101750.53
2023-04-02T15:46:23.771Z,101752.53
2023-04-02T15:48:56.399Z,101650.25
2023-04-02T15:51:33.609Z,101750.72
2023-04-02T15:54:16.151Z,101716.00
2023-04-02T15:56:59.299Z,101735.59
2023-04-02T15:59:43.927Z,101731.09
2023-04-02T16:02:33.452Z,101757.03
2023-04-02T16:05:10.128Z,101745.00
2023-04-02T16:14:46.942Z,101697.41
2023-04-02T16:17:36.705Z,101650.72
2023-04-02T16:47:22.346Z,101806.28
2023-04-02T17:08:06.979Z,101839.66
2023-04-02T17:14:15.453Z,101692.44
2023-04-02T17:16:54.820Z,101661.97
2023-04-02T17:19:29.472Z,101685.47
2023-04-02T17:22:18.799Z,101673.31
2023-04-02T17:25:19.305Z,101831.00
2023-04-02T17:27:51.790Z,101712.50
2023-04-02T17:30:38.463Z,101785.66
2023-04-02T17:33:17.331Z,101682.88
2023-04-02T17:36:05.614Z,101754.28
2023-04-02T17:39:05.661Z,101891.16
2023-04-02T17:42:15.863Z,101885.03
2023-04-02T17:44:46.668Z,101899.88
2023-04-02T17:51:54.916Z,101905.97
2023-04-02T17:54:46.645Z,101907.72
2023-04-02T17:57:18.992Z,101895.47
2023-04-02T18:00:02.492Z,101918.16
2023-04-02T18:02:51.987Z,101850.09
2023-04-02T18:05:54.482Z,101919.88
2023-04-02T18:08:43.866Z,101807.34
2023-04-02T18:11:29.635Z,101935.56
2023-04-02T18:14:35.530Z,101778.56
2023-04-02T18:17:19.511Z,101907.63
2023-04-02T18:19:53.482Z,101939.06
2023-04-02T18:23:03.233Z,101862.22
2023-04-02T18:25:50.012Z,101818.56
2023-04-02T18:28:23.000Z,101945.03
2023-04-02T18:31:37.299Z,101961.66
2023-04-02T18:34:34.822Z,101862.13
2023-04-02T18:37:28.507Z,101972.03
2023-04-02T18:40:10.183Z,101892.53
2023-04-02T18:43:14.011Z,101972.84
2023-04-02T18:45:51.692Z,101979.00
2023-04-02T18:48:28.941Z,101979.84
2023-04-02T18:50:55.759Z,101978.91
2023-04-02T18:53:24.849Z,101848.84
2023-04-02T18:56:13.102Z,102001.53
2023-04-02T18:58:52.555Z,102004.13
2023-04-02T19:01:29.874Z,101982.28
2023-04-02T19:04:22.189Z,101961.31
2023-04-02T19:07:11.206Z,101988.31
2023-04-02T19:09:42.766Z,101983.88
2023-04-02T19:12:19.089Z,102004.94
2023-04-02T19:14:50.152Z,101934.03
2023-04-02T19:17:31.452Z,102010.03
2023-04-02T19:20:34.288Z,101895.63
2023-04-02T19:23:23.533Z,101920.97
2023-04-02T19:26:06.256Z,102037.19
2023-04-02T19:28:59.829Z,102055.47
2023-04-02T19:31:52.442Z,101989.00
2023-04-02T19:34:39.656Z,102054.56
2023-04-02T19:37:35.499Z,101999.47
2023-04-02T19:40:39.270Z,102032.69
2023-04-02T19:43:14.050Z,102036.97
2023-04-02T19:45:43.147Z,101974.91
2023-04-02T19:48:20.438Z,101971.34
2023-04-02T19:50:53.232Z,101954.69
2023-04-02T19:53:20.523Z,101993.09
2023-04-02T19:55:49.382Z,102061.97
2023-04-02T19:58:27.835Z,102083.03
2023-04-02T20:00:54.875Z,102086.44
2023-04-02T20:03:30.736Z,101944.69
2023-04-02T20:06:02.768Z,101885.19
2023-04-02T20:08:29.393Z,101995.00
2023-04-02T20:10:58.428Z,102065.72
2023-04-02T20:13:24.925Z,102050.06
2023-04-02T20:15:52.891Z,101973.97
2023-04-02T20:18:22.351Z,102027.09
2023-04-02T20:20:49.364Z,102009.75
2023-04-02T20:23:16.606Z,102079.56
2023-04-02T20:25:53.338Z,102075.94
2023-04-02T20:28:24.477Z,101854.59
2023-04-02T20:30:51.426Z,101884.31
2023-04-02T20:33:23.985Z,102096.00
2023-04-02T20:35:51.966Z,102013.78
2023-04-02T20:38:18.946Z,102059.22
2023-04-02T20:40:51.934Z,102001.38
2023-04-02T20:43:18.678Z,101955.88
2023-04-02T20:45:54.562Z,102098.47
2023-04-02T20:48:22.130Z,102039.75
2023-04-02T20:50:49.181Z,102012.44
2023-04-02T20:53:16.644Z,101997.34
2023-04-02T20:55:46.601Z,102064.75
2023-04-02T20:58:15.350Z,101923.75
2023-04-02T21:00:42.080Z,102022.53
2023-04-02T21:03:09.902Z,102048.53
2023-04-02T21:05:47.182Z,102117.75
2023-04-02T21:08:16.621Z,101921.47
2023-04-02T21:10:43.007Z,102099.78
2023-04-02T21:13:09.375Z,102042.13
2023-04-02T21:15:43.094Z,102106.78
2023-04-02T21:18:09.611Z,101926.59
2023-04-02T21:20:35.987Z,102013.97
2023-04-02T21:23:04.809Z,102021.03
2023-04-02T21:25:31.490Z,101970.22
2023-04-02T21:27:57.885Z,102106.47
2023-04-02T21:30:24.313Z,101997.94
2023-04-02T21:32:50.892Z,102101.97
2023-04-02T21:35:17.400Z,102131.50
2023-04-02T21:37:44.262Z,102017.53
2023-04-02T21:40:11.800Z,102140.09
2023-04-02T21:42:38.362Z,102145.38
2023-04-02T21:45:08.216Z,102054.09
2023-04-02T21:47:35.828Z,102089.88
2023-04-02T21:50:02.381Z,102145.97
2023-04-02T21:52:28.811Z,102165.09
2023-04-02T21:54:55.253Z,102138.09
2023-04-02T21:57:21.687Z,102052.16
2023-04-02T21:59:48.109Z,102070.47
2023-04-02T22:02:16.820Z,102006.44
2023-04-02T22:04:43.186Z,102048.19
2023-04-02T22:07:09.655Z,102041.97
2023-04-02T22:09:36.164Z,102162.88
2023-04-02T22:12:02.747Z,102066.31
2023-04-02T22:14:29.442Z,102081.25
2023-04-02T22:16:56.094Z,102171.44
2023-04-02T22:19:22.573Z,102161.56
2023-04-02T22:21:49.257Z,102111.66
2023-04-02T22:24:18.764Z,102168.66
2023-04-02T22:26:49.048Z,102172.66
2023-04-02T22:29:16.186Z,102130.50
2023-04-02T22:31:42.737Z,102193.56
2023-04-02T22:34:09.507Z,102120.72
2023-04-02T22:36:36.096Z,102072.47
2023-04-02T22:39:05.551Z,101979.38
2023-04-02T22:41:32.653Z,102204.44
2023-04-02T22:44:00.816Z,102185.81
2023-04-02T22:46:28.362Z,102041.75
2023-04-02T22:48:55.731Z,102199.91
2023-04-02T22:51:23.753Z,102208.53
2023-04-02T22:53:52.449Z,102096.38
2023-04-02T22:56:24.359Z,102075.31
2023-04-02T22:58:50.937Z,102173.47
2023-04-02T23:01:22.404Z,102210.34
2023-04-02T23:03:49.320Z,102119.13
2023-04-02T23:06:20.717Z,102213.63
2023-04-02T23:08:47.402Z,102070.41
2023-04-02T23:11:22.767Z,102190.38
2023-04-02T23:13:51.556Z,102002.13
2023-04-02T23:16:24.270Z,102065.09
2023-04-02T23:18:50.846Z,102212.47
2023-04-02T23:21:19.406Z,102200.41
2023-04-02T23:23:47.005Z,102183.69
2023-04-02T23:26:16.829Z,102110.06
2023-04-02T23:28:43.983Z,102182.63
2023-04-02T23:31:16.186Z,102202.00
2023-04-02T23:33:43.143Z,102202.59
2023-04-02T23:36:21.111Z,102204.75
2023-04-02T23:38:47.712Z,102188.97
2023-04-02T23:41:15.775Z,102167.91
2023-04-02T23:43:42.635Z,102213.22
2023-04-02T23:46:09.364Z,102192.16
2023-04-02T23:48:35.743Z,102170.22
2023-04-02T23:51:02.197Z,102185.28
2023-04-02T23:53:28.552Z,102122.28
2023-04-02T23:55:54.903Z,102093.44
2023-04-02T23:58:21.366Z,102200.56
